AirNav   TITAN Aviation Fuels
 
 499 users online  

SN99 Laflin Ranch Airport
Olsburg, Kansas, USA

GOING TO OLSBURG?


FAA INFORMATION EFFECTIVE 08 SEPTEMBER 2022

Location

FAA Identifier: SN99
Lat/Long: 39-23-59.9890N 096-37-01.0260W
39-23.999817N 096-37.017100W
39.3999969,-96.6169517
(estimated)
Elevation: 1190 ft. / 363 m (estimated)
Variation: 06E (1985)
From city: 2 miles S of OLSBURG, KS
Time zone: UTC -5 (UTC -6 during Standard Time)
Zip code: 66520

Airport Operations

Airport use: Private use. Permission required prior to landing
Activation date: 04/1971
Control tower: no
ARTCC: KANSAS CITY CENTER
FSS: WICHITA FLIGHT SERVICE STATION
Attendance: UNATNDD
Wind indicator: yes
Segmented circle: no

Airport Communications

WX ASOS at MHK (16 nm S): 119.075 (785-537-1035)

Nearby radio navigation aids

VOR radial/distance  VOR name  Freq  Var
MHKr005/15.5MANHATTAN VOR/DME110.2004E
FRIr018/(28.2)FORT RILEY VOR109.4006E

Airport Services

Airframe service: NONE
Powerplant service: NONE

Runway Information

Runway 5/23

Dimensions: 2000 x 50 ft. / 610 x 15 m
Surface: turf
RUNWAY 5  RUNWAY 23
Traffic pattern: leftleft

Runway N/S

Dimensions: 1500 x 50 ft. / 457 x 15 m
Surface: turf
RUNWAY N  RUNWAY S
Traffic pattern: leftleft

Airport Ownership and Management from official FAA records

Ownership: Privately-owned
Owner: ROBERT D LAFLIN
OLSBURG, KS 66520
Phone 913-468-3529

Airport Operational Statistics

Aircraft based on the field: 2
Single engine airplanes: 2
    

Additional Remarks

FOR CD CTC MARSHALL APCH AT 785-239-2118. WHEN MARSHALL APCH IS CLSD, CTC KANSAS CITY ARTCC AT 913-254-8508.

Instrument Procedures

There are no published instrument procedures at SN99.

Some nearby airports with instrument procedures:

KMHK - Manhattan Regional Airport (16 nm S)
KFRI - Marshall Army Airfield (22 nm S)
3JC - Freeman Field Airport (24 nm SW)
KCYW - Clay Center Municipal Airport (25 nm W)
KMYZ - Marysville Municipal Airport (27 nm N)
 
Loc | Ops | Rwys | IFR | FBO | Links
Com | Nav | Svcs | Stats | Notes
Area around SN99 (Laflin Ranch Airport)
 
Road maps at: MapQuest Bing Google
 
Aerial photo
No photo
 
Sectional chart

 
Airport distance calculator
Flying to Laflin Ranch Airport? Find the distance to fly.

From to SN99

Sunrise and sunset
Times for 03-Oct-2022
 Local
(UTC-5)
 Zulu
(UTC)
Morning civil twilight06:5911:59
Sunrise07:2512:25
Sunset19:0600:06
Evening civil twilight19:3200:32

Current date and time
Zulu (UTC)  03-Oct-2022 06:19:00
Local (UTC-5)  03-Oct-2022 01:19:00
 
METAR
KMHK 
16nm S 
030552Z AUTO 00000KT 10SM CLR 14/06 A3023 RMK AO2 SLP231 T01390056 10228 20111 402830067 58004
KFRI 
23nm S 
030555Z AUTO 12005KT 10SM CLR 14/06 A3022 RMK AO2 SLP226 T01420058 10240 20140 57004 FZRANO $
KMYZ 
27nm N 
030550Z AUTO 00000KT 10SM CLR 13/06 A3024 RMK AO2
TAF
KMHK 
16nm S 
030520Z 0306/0406 16007KT P6SM SKC
NOTAMs
Click for the latest NOTAMs
NOTAMs are issued by the DoD/FAA and will open in a separate window not controlled by AirNav.

 

 
 

Would you like to see your business listed on this page?

 If your business provides an interesting product or service to pilots, flight crews, aircraft, or users of the Laflin Ranch Airport, you should consider listing it here.  To start the listing process, click on the button below
 
Add a business
 

Other Pages about Laflin Ranch Airport

Update a link
 
Copyright © AirNav, LLC. All rights reserved. Privacy Policy  Contact